createdAt,value
2018-02-06T00:01:08.153Z,70.50
2018-02-06T00:03:35.743Z,70.50
2018-02-06T00:06:03.283Z,70.50
2018-02-06T00:08:30.869Z,70.40
2018-02-06T00:10:58.418Z,70.40
2018-02-06T00:13:25.995Z,70.30
2018-02-06T00:15:53.620Z,70.50
2018-02-06T00:18:21.201Z,70.70
2018-02-06T00:20:48.745Z,70.80
2018-02-06T00:23:16.320Z,71.00
2018-02-06T00:25:43.851Z,70.90
2018-02-06T00:28:11.440Z,70.90
2018-02-06T00:30:38.978Z,71.00
2018-02-06T00:33:06.558Z,71.20
2018-02-06T00:35:34.199Z,71.10
2018-02-06T00:38:01.779Z,70.90
2018-02-06T00:40:29.324Z,70.90
2018-02-06T00:42:56.863Z,70.80
2018-02-06T00:45:24.443Z,70.90
2018-02-06T00:47:52.031Z,70.90
2018-02-06T00:50:19.559Z,71.00
2018-02-06T00:52:47.138Z,70.90
2018-02-06T00:55:14.676Z,71.10
2018-02-06T00:57:42.266Z,71.00
2018-02-06T01:00:09.815Z,70.90
2018-02-06T01:02:37.357Z,71.00
2018-02-06T01:05:04.931Z,71.00
2018-02-06T01:07:32.458Z,71.10
2018-02-06T01:10:00.049Z,71.20
2018-02-06T01:12:27.592Z,71.20
2018-02-06T01:14:55.170Z,71.20
2018-02-06T01:17:22.731Z,71.20
2018-02-06T01:19:50.306Z,71.30
2018-02-06T01:22:18.640Z,71.50
2018-02-06T01:24:46.225Z,71.40
2018-02-06T01:27:13.765Z,71.50
2018-02-06T01:29:41.346Z,71.60
2018-02-06T01:32:08.890Z,71.70
2018-02-06T01:34:36.464Z,71.60
2018-02-06T01:37:04.014Z,71.80
2018-02-06T01:39:31.601Z,72.00
2018-02-06T01:41:59.141Z,72.00
2018-02-06T01:44:26.723Z,72.10
2018-02-06T01:46:54.272Z,72.20
2018-02-06T01:49:21.844Z,72.20
2018-02-06T01:51:49.381Z,72.00
2018-02-06T01:54:16.961Z,72.10
2018-02-06T01:56:44.496Z,72.10
2018-02-06T01:59:12.072Z,72.10
2018-02-06T02:01:39.602Z,72.10
2018-02-06T02:04:07.178Z,71.90
2018-02-06T02:06:34.731Z,72.00
2018-02-06T02:09:02.368Z,72.00
2018-02-06T02:11:30.643Z,71.60
2018-02-06T02:13:58.227Z,72.10
2018-02-06T02:16:25.810Z,72.30
2018-02-06T02:18:53.396Z,72.20
2018-02-06T02:21:21.694Z,72.30
2018-02-06T02:23:50.032Z,72.30
2018-02-06T02:26:17.569Z,72.30
2018-02-06T02:28:45.144Z,72.40
2018-02-06T02:31:12.683Z,72.50
2018-02-06T02:33:40.268Z,72.50
2018-02-06T02:36:07.807Z,72.50
2018-02-06T02:38:35.459Z,72.70
2018-02-06T02:41:02.985Z,72.60
2018-02-06T04:39:14.758Z,73.30
2018-02-06T04:41:43.086Z,73.40
2018-02-06T04:44:10.612Z,73.40
2018-02-06T04:46:38.181Z,73.30
2018-02-06T04:49:05.702Z,73.30
2018-02-06T04:51:34.033Z,73.20
2018-02-06T04:54:01.549Z,73.20
2018-02-06T04:56:29.873Z,73.50
2018-02-06T04:58:57.392Z,73.50
2018-02-06T05:04:11.372Z,73.90
2018-02-06T05:06:39.039Z,74.80
2018-02-06T05:09:06.645Z,74.20
2018-02-06T05:11:34.170Z,74.00
2018-02-06T05:14:01.729Z,74.10
2018-02-06T05:16:29.250Z,74.00
2018-02-06T05:18:57.596Z,74.00
2018-02-06T05:21:25.125Z,73.90
2018-02-06T05:23:52.674Z,73.90
2018-02-06T05:26:20.246Z,74.10
2018-02-06T05:28:47.782Z,74.40
2018-02-06T05:31:15.320Z,74.30
2018-02-06T05:33:43.659Z,74.40
2018-02-06T05:36:11.289Z,74.40
2018-02-06T05:38:38.860Z,75.10
2018-02-06T05:41:06.441Z,75.00
2018-02-06T05:43:34.014Z,75.10
2018-02-06T05:46:01.557Z,75.10
2018-02-06T05:48:29.139Z,75.10
2018-02-06T05:50:57.532Z,75.00
2018-02-06T05:53:25.088Z,75.00
2018-02-06T05:55:53.389Z,75.40
2018-02-06T05:58:20.974Z,75.30
2018-02-06T06:00:48.554Z,75.50
2018-02-06T06:03:16.091Z,75.60
2018-02-06T06:05:43.659Z,75.60
2018-02-06T06:08:11.197Z,75.60
2018-02-06T06:10:38.774Z,75.40
2018-02-06T06:13:06.307Z,75.30
2018-02-06T06:15:33.863Z,75.40
2018-02-06T06:18:01.439Z,75.60
2018-02-06T06:20:28.987Z,75.60
2018-02-06T06:22:56.560Z,75.70
2018-02-06T06:25:24.137Z,75.70
2018-02-06T06:27:51.683Z,75.80
2018-02-06T06:30:19.257Z,75.90
2018-02-06T06:32:46.836Z,76.00
2018-02-06T06:35:14.377Z,75.90
2018-02-06T06:37:41.964Z,76.00
2018-02-06T06:40:09.500Z,75.90
2018-02-06T06:42:37.035Z,76.00
2018-02-06T06:45:04.609Z,76.10
2018-02-06T06:47:32.136Z,76.10
2018-02-06T06:49:59.715Z,76.10
2018-02-06T06:52:27.257Z,76.00
2018-02-06T06:54:54.828Z,76.00
2018-02-06T06:57:22.397Z,76.20
2018-02-06T06:59:49.934Z,76.30
2018-02-06T07:02:17.509Z,76.20
2018-02-06T07:04:46.205Z,76.00
2018-02-06T07:07:14.475Z,76.20
2018-02-06T07:09:42.012Z,76.20
2018-02-06T07:12:09.617Z,76.20
2018-02-06T07:14:37.205Z,76.30
2018-02-06T07:17:04.813Z,76.40
2018-02-06T07:19:32.394Z,76.40
2018-02-06T07:21:59.934Z,76.20
2018-02-06T07:24:27.515Z,76.30
2018-02-06T07:26:55.052Z,76.40
2018-02-06T07:29:22.660Z,76.50
2018-02-06T07:31:50.203Z,76.30
2018-02-06T07:34:17.775Z,76.50
2018-02-06T07:36:45.314Z,76.30
2018-02-06T07:39:12.899Z,76.50
2018-02-06T07:41:40.440Z,76.40
2018-02-06T07:44:08.032Z,76.40
2018-02-06T07:46:36.342Z,76.50
2018-02-06T07:49:03.921Z,76.50
2018-02-06T07:51:31.569Z,76.40
2018-02-06T07:53:59.155Z,76.60
2018-02-06T07:56:26.691Z,76.50
2018-02-06T07:58:54.269Z,76.40
2018-02-06T08:01:21.815Z,76.60
2018-02-06T08:03:49.445Z,76.40
2018-02-06T08:06:16.984Z,76.50
2018-02-06T08:08:45.348Z,76.40
2018-02-06T08:11:12.986Z,76.20
2018-02-06T08:13:40.532Z,76.30
2018-02-06T08:16:08.117Z,76.20
2018-02-06T08:18:35.655Z,76.10
2018-02-06T08:21:03.250Z,76.20
2018-02-06T08:23:30.785Z,76.30
2018-02-06T08:25:58.367Z,76.30
2018-02-06T08:28:25.922Z,76.60
2018-02-06T08:30:53.493Z,76.50
2018-02-06T08:33:21.820Z,76.30
2018-02-06T08:35:49.407Z,76.30
2018-02-06T08:38:16.964Z,76.30
2018-02-06T08:40:44.503Z,76.30
2018-02-06T08:43:12.164Z,76.20
2018-02-06T08:45:39.705Z,76.20
2018-02-06T08:48:07.276Z,76.30
2018-02-06T08:50:34.936Z,77.00
2018-02-06T08:53:02.473Z,76.20
2018-02-06T08:55:30.820Z,76.10
2018-02-06T08:57:58.376Z,76.10
2018-02-06T09:00:25.965Z,76.00
2018-02-06T09:02:54.437Z,76.10
2018-02-06T09:05:22.785Z,76.00
2018-02-06T09:07:50.323Z,76.00
2018-02-06T09:10:17.904Z,75.90
2018-02-06T09:12:45.451Z,75.80
2018-02-06T09:15:13.033Z,75.90
2018-02-06T09:17:40.564Z,75.80
2018-02-06T09:20:08.139Z,75.70
2018-02-06T09:22:35.690Z,75.40
2018-02-06T09:25:03.272Z,75.20
2018-02-06T09:27:30.807Z,74.60
2018-02-06T09:29:58.381Z,74.40
2018-02-06T09:32:25.929Z,74.40
2018-02-06T09:34:53.507Z,74.40
2018-02-06T09:37:21.052Z,74.90
2018-02-06T09:39:48.634Z,75.70
2018-02-06T09:42:16.171Z,75.80
2018-02-06T09:44:43.752Z,76.10
2018-02-06T09:47:12.057Z,75.20
2018-02-06T09:49:40.403Z,74.80
2018-02-06T09:52:07.949Z,74.80
2018-02-06T09:54:35.550Z,74.60
2018-02-06T09:57:03.847Z,74.50
2018-02-06T09:59:31.419Z,74.50
2018-02-06T10:01:58.956Z,74.60
2018-02-06T10:04:27.310Z,74.20
2018-02-06T10:06:54.849Z,74.20
2018-02-06T10:09:22.442Z,73.90
2018-02-06T10:11:50.792Z,73.70
2018-02-06T10:14:18.380Z,73.60
2018-02-06T10:16:46.712Z,73.60
2018-02-06T10:19:14.299Z,73.50
2018-02-06T10:21:41.835Z,73.50
2018-02-06T10:24:09.423Z,73.20
2018-02-06T10:26:38.465Z,73.00
2018-02-06T10:29:06.061Z,73.00
2018-02-06T10:31:33.608Z,72.70
2018-02-06T10:34:01.192Z,72.60
2018-02-06T10:36:28.723Z,72.30
2018-02-06T10:38:56.626Z,71.90
2018-02-06T10:41:24.358Z,71.80
2018-02-06T10:43:52.663Z,71.30
2018-02-06T10:46:20.240Z,71.30
2018-02-06T10:48:48.542Z,70.90
2018-02-06T10:51:16.108Z,70.90
2018-02-06T10:53:43.686Z,70.80
2018-02-06T10:56:11.250Z,70.30
2018-02-06T10:58:38.782Z,69.80
2018-02-06T11:01:06.348Z,69.50
2018-02-06T11:03:33.926Z,69.40
2018-02-06T11:06:01.498Z,69.40
2018-02-06T11:08:29.032Z,69.00
2018-02-06T11:10:56.614Z,68.80
2018-02-06T11:13:24.151Z,68.50
2018-02-06T11:15:51.691Z,68.30
2018-02-06T11:18:19.254Z,67.90
2018-02-06T11:20:46.789Z,68.00
2018-02-06T11:23:15.180Z,68.50
2018-02-06T11:25:43.474Z,68.60
2018-02-06T11:28:11.060Z,68.60
2018-02-06T11:30:38.715Z,68.70
2018-02-06T11:33:06.250Z,68.80
2018-02-06T11:35:33.811Z,69.20
2018-02-06T11:38:01.340Z,69.70
2018-02-06T11:40:29.684Z,70.20
2018-02-06T11:42:57.307Z,70.20
2018-02-06T11:45:24.855Z,70.40
2018-02-06T11:47:53.198Z,70.40
2018-02-06T11:50:20.729Z,70.30
2018-02-06T11:52:48.265Z,70.10
2018-02-06T11:55:15.843Z,70.00
2018-02-06T11:57:43.409Z,70.00
2018-02-06T12:00:10.978Z,70.20
2018-02-06T12:02:38.623Z,70.60
2018-02-06T12:05:06.194Z,70.90
2018-02-06T12:07:33.735Z,71.20
2018-02-06T12:10:01.314Z,71.40
2018-02-06T12:12:28.892Z,71.30
2018-02-06T12:14:56.456Z,71.00
2018-02-06T12:17:23.995Z,70.70
2018-02-06T12:19:51.558Z,70.50
2018-02-06T12:22:19.117Z,70.60
2018-02-06T12:24:47.563Z,70.50
2018-02-06T12:27:15.144Z,70.50
2018-02-06T12:29:42.714Z,70.50
2018-02-06T12:32:10.243Z,70.60
2018-02-06T12:34:37.816Z,70.70
2018-02-06T12:37:05.391Z,71.00
2018-02-06T12:39:32.966Z,70.90
2018-02-06T12:42:00.547Z,70.90
2018-02-06T12:44:28.089Z,71.10
2018-02-06T12:46:55.620Z,71.00
2018-02-06T12:49:23.190Z,71.30
2018-02-06T12:51:50.837Z,71.40
2018-02-06T12:54:18.423Z,71.10
2018-02-06T12:56:45.975Z,71.00
2018-02-06T12:59:13.546Z,71.40
2018-02-06T13:01:41.126Z,71.30
2018-02-06T13:04:08.732Z,71.10
2018-02-06T13:06:36.266Z,71.30
2018-02-06T13:09:04.616Z,71.50
2018-02-06T13:11:32.204Z,71.40
2018-02-06T13:13:59.803Z,71.20
2018-02-06T13:16:27.371Z,70.90
2018-02-06T13:18:54.912Z,71.00
2018-02-06T13:21:22.504Z,70.70
2018-02-06T13:23:50.048Z,70.40
2018-02-06T13:26:17.622Z,70.20
2018-02-06T13:28:45.163Z,69.80
2018-02-06T13:31:12.758Z,70.00
2018-02-06T13:33:40.295Z,70.20
2018-02-06T13:36:07.875Z,70.00
2018-02-06T13:38:35.453Z,70.20
2018-02-06T13:41:03.765Z,70.30
2018-02-06T13:43:31.350Z,70.30
2018-02-06T13:45:58.994Z,70.10
2018-02-06T13:48:26.534Z,69.80
2018-02-06T13:50:54.106Z,69.80
2018-02-06T13:53:21.644Z,69.90
2018-02-06T13:55:49.236Z,70.20
2018-02-06T13:58:16.893Z,70.30
2018-02-06T14:00:44.472Z,70.60
2018-02-06T14:03:12.010Z,70.80
2018-02-06T14:05:39.674Z,71.00
2018-02-06T14:08:07.215Z,71.10
2018-02-06T14:10:34.783Z,71.20
2018-02-06T14:13:02.388Z,71.10
2018-02-06T14:15:29.929Z,71.30
2018-02-06T14:17:57.496Z,71.60
2018-02-06T14:20:25.076Z,71.40
2018-02-06T14:22:52.653Z,71.70
2018-02-06T14:25:20.963Z,72.30
2018-02-06T14:27:48.632Z,72.20
2018-02-06T14:30:16.416Z,72.50
2018-02-06T14:32:43.955Z,72.60
2018-02-06T14:35:11.493Z,72.80
2018-02-06T14:37:39.070Z,72.90
2018-02-06T14:40:06.674Z,73.00
2018-02-06T14:42:34.213Z,73.10
2018-02-06T14:45:01.786Z,73.30
2018-02-06T14:47:29.320Z,73.40
2018-02-06T14:49:56.893Z,73.60
2018-02-06T14:52:24.433Z,73.70
2018-02-06T14:54:52.007Z,73.80
2018-02-06T14:57:19.586Z,74.00
2018-02-06T14:59:47.130Z,74.20
2018-02-06T15:02:14.763Z,74.30
2018-02-06T15:04:42.303Z,74.30
2018-02-06T15:07:10.644Z,74.60
2018-02-06T15:09:38.183Z,74.60
2018-02-06T15:12:05.761Z,74.60
2018-02-06T15:14:33.293Z,74.80
2018-02-06T15:17:00.832Z,74.90
2018-02-06T15:19:28.408Z,74.90
2018-02-06T15:21:55.947Z,74.90
2018-02-06T15:24:23.518Z,74.90
2018-02-06T15:26:51.121Z,75.10
2018-02-06T15:29:19.518Z,75.10
2018-02-06T15:31:47.063Z,75.10
2018-02-06T15:34:15.368Z,75.00
2018-02-06T15:36:43.789Z,75.20
2018-02-06T15:39:11.323Z,75.10
2018-02-06T15:41:38.892Z,75.10
2018-02-06T15:44:06.456Z,75.10
2018-02-06T15:46:34.062Z,75.30
2018-02-06T15:49:01.613Z,75.30
2018-02-06T15:51:29.196Z,75.10
2018-02-06T15:53:56.727Z,75.10
2018-02-06T15:56:24.306Z,75.30
2018-02-06T15:58:51.846Z,75.30
2018-02-06T16:01:19.482Z,75.20
2018-02-06T16:03:47.058Z,75.30
2018-02-06T16:06:14.644Z,75.30
2018-02-06T16:08:42.247Z,75.40
2018-02-06T16:11:09.811Z,75.20
2018-02-06T16:13:37.347Z,75.30
2018-02-06T16:16:05.686Z,75.20
2018-02-06T16:18:33.263Z,75.20
2018-02-06T16:21:00.802Z,75.30
2018-02-06T16:23:28.374Z,75.30
2018-02-06T16:25:55.920Z,75.20
2018-02-06T16:28:23.480Z,75.20
2018-02-06T16:30:51.056Z,75.30
2018-02-06T16:33:18.604Z,75.30
2018-02-06T16:35:46.184Z,75.30
2018-02-06T16:38:13.740Z,75.20
2018-02-06T16:40:41.334Z,75.30
2018-02-06T16:43:08.881Z,75.30
2018-02-06T16:45:37.181Z,75.40
2018-02-06T16:48:04.774Z,75.40
2018-02-06T16:50:32.321Z,75.40
2018-02-06T16:52:59.906Z,75.60
2018-02-06T16:55:27.435Z,75.60
2018-02-06T16:57:55.005Z,75.80
2018-02-06T17:00:22.538Z,75.70
2018-02-06T17:02:50.150Z,75.70
2018-02-06T17:05:17.690Z,75.80
2018-02-06T17:07:45.233Z,75.80
2018-02-06T17:10:12.893Z,75.80
2018-02-06T17:12:40.422Z,75.80
2018-02-06T17:15:07.969Z,75.70
2018-02-06T17:17:36.307Z,75.70
2018-02-06T17:20:03.847Z,75.70
2018-02-06T17:22:31.430Z,75.70
2018-02-06T17:24:58.966Z,75.80
2018-02-06T17:27:26.524Z,76.10
2018-02-06T17:29:54.107Z,76.30
2018-02-06T17:32:21.646Z,76.50
2018-02-06T17:34:49.221Z,76.60
2018-02-06T17:37:16.778Z,76.70
2018-02-06T17:39:44.358Z,76.70
2018-02-06T17:42:11.897Z,76.70
2018-02-06T17:44:39.468Z,76.90
2018-02-06T17:47:07.013Z,77.00
2018-02-06T17:49:34.617Z,77.00
2018-02-06T17:52:02.154Z,77.10
2018-02-06T17:54:29.760Z,77.20
2018-02-06T17:56:57.355Z,77.30
2018-02-06T17:59:24.936Z,77.30
2018-02-06T18:01:52.476Z,77.40
2018-02-06T18:04:20.125Z,77.30
2018-02-06T18:06:47.665Z,77.50
2018-02-06T18:09:15.262Z,77.30
2018-02-06T18:11:42.811Z,77.30
2018-02-06T18:14:10.393Z,77.40
2018-02-06T18:16:37.935Z,77.40
2018-02-06T18:19:05.559Z,77.50
2018-02-06T18:21:33.850Z,77.50
2018-02-06T18:24:01.432Z,77.50
2018-02-06T18:26:28.978Z,77.50
2018-02-06T18:28:56.579Z,77.40
2018-02-06T18:31:24.935Z,77.50
2018-02-06T18:33:52.441Z,77.50
2018-02-06T18:36:20.793Z,77.50
2018-02-06T18:38:48.382Z,77.50
2018-02-06T18:41:16.700Z,77.40
2018-02-06T18:43:44.290Z,77.30
2018-02-06T18:46:11.821Z,77.40
2018-02-06T18:48:39.408Z,77.40
2018-02-06T18:51:07.039Z,77.40
2018-02-06T18:53:34.660Z,77.30
2018-02-06T18:56:02.995Z,77.50
2018-02-06T18:58:30.535Z,77.30
2018-02-06T19:00:58.127Z,77.50
2018-02-06T19:03:25.711Z,77.30
2018-02-06T19:05:54.056Z,77.40
2018-02-06T19:08:21.605Z,77.30
2018-02-06T19:10:49.208Z,77.40
2018-02-06T19:13:17.530Z,77.50
2018-02-06T19:15:45.201Z,77.30
2018-02-06T19:18:12.771Z,77.50
2018-02-06T19:20:40.358Z,77.30
2018-02-06T19:23:07.928Z,77.40
2018-02-06T19:25:36.267Z,77.50
2018-02-06T19:28:03.869Z,77.40
2018-02-06T19:30:32.178Z,77.40
2018-02-06T19:32:59.901Z,77.40
2018-02-06T19:35:27.496Z,77.30
2018-02-06T19:37:55.053Z,77.90
2018-02-06T19:40:22.603Z,77.30
2018-02-06T19:42:51.002Z,77.30
2018-02-06T19:45:18.535Z,77.30
2018-02-06T19:47:46.843Z,77.30
2018-02-06T19:50:14.423Z,77.30
2018-02-06T19:52:42.011Z,77.30
2018-02-06T19:55:09.595Z,78.10
2018-02-06T19:57:37.946Z,77.20
2018-02-06T20:00:05.482Z,77.10
2018-02-06T20:02:33.051Z,77.20
2018-02-06T20:05:00.685Z,77.20
2018-02-06T20:07:28.313Z,77.10
2018-02-06T20:09:56.667Z,77.10
2018-02-06T20:12:25.735Z,77.10
2018-02-06T20:14:53.311Z,77.10
2018-02-06T20:17:20.905Z,77.00
2018-02-06T20:19:49.235Z,77.00
2018-02-06T20:22:16.773Z,76.90
2018-02-06T20:24:44.350Z,76.90
2018-02-06T20:27:11.890Z,76.90
2018-02-06T20:29:39.522Z,76.90
2018-02-06T20:32:07.872Z,76.90
2018-02-06T20:34:35.461Z,76.90
2018-02-06T20:37:03.821Z,76.80
2018-02-06T20:39:32.131Z,76.80
2018-02-06T20:41:59.742Z,76.70
2018-02-06T20:44:27.350Z,76.80
2018-02-06T20:46:55.529Z,76.80
2018-02-06T20:49:23.104Z,76.80
2018-02-06T20:51:50.787Z,76.80
2018-02-06T20:54:18.392Z,76.80
2018-02-06T20:56:46.725Z,76.80
2018-02-06T20:59:14.329Z,76.80
2018-02-06T21:01:42.684Z,76.80
2018-02-06T21:04:10.303Z,76.70
2018-02-06T21:06:37.881Z,76.70
2018-02-06T21:09:05.423Z,76.70
2018-02-06T21:11:33.058Z,76.70
2018-02-06T21:14:01.356Z,76.70
2018-02-06T21:16:29.000Z,76.70
2018-02-06T21:18:56.545Z,76.70
2018-02-06T21:21:24.854Z,76.60
2018-02-06T21:23:52.491Z,76.60
2018-02-06T21:26:20.793Z,76.70
2018-02-06T21:28:48.370Z,76.70
2018-02-06T21:31:15.907Z,76.70
2018-02-06T21:33:43.483Z,76.70
2018-02-06T21:36:11.011Z,76.50
2018-02-06T21:38:39.310Z,76.70
2018-02-06T21:41:06.887Z,76.70
2018-02-06T21:43:34.412Z,76.60
2018-02-06T21:46:01.984Z,76.60
2018-02-06T21:48:29.623Z,76.60
2018-02-06T21:50:57.966Z,76.60
2018-02-06T21:53:25.547Z,76.50
2018-02-06T21:55:53.895Z,76.60
2018-02-06T21:58:21.446Z,76.50
2018-02-06T22:00:49.065Z,76.50
2018-02-06T22:03:16.648Z,76.50
2018-02-06T22:05:44.184Z,76.50
2018-02-06T22:08:11.761Z,76.50
2018-02-06T22:10:39.345Z,76.50
2018-02-06T22:13:06.915Z,76.50
2018-02-06T22:15:34.457Z,76.40
2018-02-06T22:18:02.022Z,76.40
2018-02-06T22:20:29.612Z,76.40
2018-02-06T22:22:57.154Z,76.30
2018-02-06T22:25:24.688Z,76.30
2018-02-06T22:27:52.268Z,76.20
2018-02-06T22:30:19.843Z,76.30
2018-02-06T22:32:47.381Z,76.20
2018-02-06T22:35:14.967Z,76.20
2018-02-06T22:37:42.508Z,76.10
2018-02-06T22:40:10.090Z,76.20
2018-02-06T22:42:37.622Z,76.10
2018-02-06T22:45:05.157Z,76.10
2018-02-06T22:47:32.813Z,76.20
2018-02-06T22:50:00.370Z,76.10
2018-02-06T22:52:27.953Z,76.10
2018-02-06T22:54:55.491Z,76.10
2018-02-06T22:57:23.035Z,76.00
2018-02-06T22:59:51.377Z,76.00
2018-02-06T23:02:18.907Z,75.90
2018-02-06T23:04:46.476Z,75.90
2018-02-06T23:07:14.058Z,75.90
2018-02-06T23:09:41.681Z,75.90
2018-02-06T23:12:09.268Z,75.80
2018-02-06T23:14:36.804Z,75.90
2018-02-06T23:17:04.373Z,75.80
2018-02-06T23:19:31.957Z,75.80
2018-02-06T23:21:59.491Z,75.70
2018-02-06T23:24:27.253Z,75.80
2018-02-06T23:26:54.821Z,75.60
2018-02-06T23:29:22.365Z,75.60
2018-02-06T23:31:49.945Z,75.60
2018-02-06T23:34:17.520Z,75.70
2018-02-06T23:36:45.054Z,75.60
2018-02-06T23:39:12.635Z,75.60
2018-02-06T23:41:40.171Z,75.70
2018-02-06T23:44:07.743Z,75.70
2018-02-06T23:46:35.278Z,75.60
2018-02-06T23:49:02.942Z,75.60
2018-02-06T23:51:30.521Z,75.60
2018-02-06T23:53:58.058Z,75.50
2018-02-06T23:56:25.627Z,75.50
2018-02-06T23:58:53.159Z,75.50
